createdAt,value
2019-02-19T00:05:44.019Z,73.39
2019-02-19T00:11:48.573Z,73.08
2019-02-19T00:17:53.276Z,73.20
2019-02-19T00:23:58.387Z,73.58
2019-02-19T00:30:04.030Z,73.79
2019-02-19T00:36:08.832Z,74.15
2019-02-19T00:42:13.413Z,74.38
2019-02-19T00:48:18.107Z,75.10
2019-02-19T00:54:22.650Z,75.25
2019-02-19T01:00:27.274Z,76.29
2019-02-19T01:06:32.036Z,75.02
2019-02-19T01:12:36.670Z,75.20
2019-02-19T01:18:42.919Z,75.89
2019-02-19T01:24:47.612Z,75.60
2019-02-19T01:30:52.842Z,74.87
2019-02-19T01:36:57.416Z,75.29
2019-02-19T01:43:02.265Z,75.34
2019-02-19T01:49:06.815Z,74.46
2019-02-19T01:55:11.474Z,74.33
2019-02-19T02:01:16.027Z,75.22
2019-02-19T02:07:21.957Z,77.07
2019-02-19T02:13:26.540Z,78.25
2019-02-19T02:19:31.714Z,76.06
2019-02-19T02:25:36.539Z,76.17
2019-02-19T02:31:41.519Z,78.63
2019-02-19T02:37:49.258Z,79.35
2019-02-19T02:43:53.969Z,79.34
2019-02-19T02:49:58.985Z,79.40
2019-02-19T02:56:03.666Z,78.96
2019-02-19T03:02:08.459Z,77.19
2019-02-19T03:08:13.220Z,79.16
2019-02-19T03:14:18.029Z,78.71
2019-02-19T03:20:23.863Z,79.05
2019-02-19T03:26:29.092Z,78.16
2019-02-19T03:32:33.902Z,76.60
2019-02-19T03:38:38.455Z,79.76
2019-02-19T03:44:43.319Z,77.26
2019-02-19T03:50:47.954Z,77.32
2019-02-19T03:56:52.661Z,79.21
2019-02-19T04:02:57.471Z,78.93
2019-02-19T04:09:02.284Z,79.73
2019-02-19T04:15:08.561Z,80.05
2019-02-19T04:21:13.124Z,80.59
2019-02-19T04:27:17.727Z,80.97
2019-02-19T04:33:22.396Z,83.87
2019-02-19T04:39:30.674Z,82.18
2019-02-19T04:45:35.471Z,84.20
2019-02-19T04:51:40.110Z,83.85
2019-02-19T04:57:44.880Z,83.46
2019-02-19T05:03:49.438Z,83.21
2019-02-19T05:09:55.130Z,85.41
2019-02-19T05:15:59.743Z,85.37
2019-02-19T05:22:04.560Z,83.66
2019-02-19T05:28:09.126Z,84.52
2019-02-19T05:34:13.750Z,85.59
2019-02-19T05:40:18.489Z,85.02
2019-02-19T05:46:23.040Z,83.85
2019-02-19T05:52:29.265Z,81.56
2019-02-19T05:58:34.010Z,80.95
2019-02-19T06:04:38.890Z,79.54
2019-02-19T06:10:44.182Z,78.63
2019-02-19T06:16:49.052Z,77.73
2019-02-19T06:22:55.229Z,77.19
2019-02-19T06:29:01.967Z,76.70
2019-02-19T06:35:08.033Z,76.07
2019-02-19T06:41:15.034Z,75.64
2019-02-19T06:47:19.960Z,74.39
2019-02-19T06:53:24.825Z,73.14
2019-02-19T06:59:29.935Z,74.21
2019-02-19T07:05:34.649Z,75.37
2019-02-19T07:11:39.212Z,75.48
2019-02-19T07:17:43.761Z,74.95
2019-02-19T07:23:48.350Z,75.14
2019-02-19T07:29:52.902Z,74.31
2019-02-19T07:35:57.451Z,72.93
2019-02-19T07:42:02.146Z,73.61
2019-02-19T07:48:06.740Z,74.14
2019-02-19T08:00:21.222Z,74.00
2019-02-19T08:06:25.793Z,74.24
2019-02-19T08:12:30.504Z,74.64
2019-02-19T08:18:35.353Z,74.32
2019-02-19T08:24:39.984Z,74.27
2019-02-19T08:30:44.612Z,74.03
2019-02-19T08:36:49.227Z,71.69
2019-02-19T08:42:53.865Z,70.90
2019-02-19T08:49:00.884Z,71.03
2019-02-19T08:55:06.689Z,70.47
2019-02-19T09:01:11.463Z,70.24
2019-02-19T09:07:16.300Z,69.90
2019-02-19T09:13:21.030Z,71.14
2019-02-19T09:19:25.575Z,70.94
2019-02-19T09:25:30.616Z,71.07
2019-02-19T09:31:35.317Z,71.35
2019-02-19T09:37:40.055Z,72.58
2019-02-19T09:43:44.787Z,72.59
2019-02-19T09:49:49.369Z,72.38
2019-02-19T09:55:54.533Z,72.18
2019-02-19T10:01:59.276Z,71.21
2019-02-19T10:08:03.934Z,69.41
2019-02-19T10:14:08.715Z,68.59
2019-02-19T10:20:13.572Z,67.52
2019-02-19T10:26:18.201Z,68.90
2019-02-19T10:32:23.780Z,67.21
2019-02-19T10:38:28.422Z,68.22
2019-02-19T10:44:33.550Z,68.99
2019-02-19T10:50:38.442Z,69.51
2019-02-19T10:56:43.000Z,69.63
2019-02-19T11:02:48.013Z,68.50
2019-02-19T11:08:52.721Z,67.81
2019-02-19T11:14:57.261Z,66.90
2019-02-19T11:21:02.669Z,65.50
2019-02-19T11:27:07.245Z,65.88
2019-02-19T11:33:11.949Z,65.41
2019-02-19T11:39:16.803Z,64.84
2019-02-19T11:45:21.776Z,63.90
2019-02-19T11:51:26.347Z,62.73
2019-02-19T11:57:31.324Z,60.66
2019-02-19T12:03:35.904Z,59.89
2019-02-19T12:09:41.812Z,57.96
2019-02-19T12:15:50.120Z,55.46
2019-02-19T12:21:54.765Z,54.29
2019-02-19T12:27:59.446Z,53.59
2019-02-19T12:34:04.492Z,53.12
2019-02-19T12:40:12.262Z,53.61
2019-02-19T12:46:18.143Z,54.08
2019-02-19T12:52:22.770Z,56.07
2019-02-19T12:58:27.511Z,53.84
2019-02-19T13:04:32.395Z,55.73
2019-02-19T13:10:36.962Z,56.04
2019-02-19T13:16:41.531Z,56.20
2019-02-19T13:22:46.110Z,55.48
2019-02-19T13:28:50.764Z,55.12
2019-02-19T13:34:56.910Z,54.06
2019-02-19T13:41:01.462Z,54.30
2019-02-19T13:47:06.192Z,53.65
2019-02-19T13:53:15.123Z,54.91
2019-02-19T13:59:19.829Z,55.10
2019-02-19T14:05:25.338Z,56.51
2019-02-19T14:11:30.996Z,55.25
2019-02-19T14:17:35.901Z,56.26
2019-02-19T14:23:58.665Z,56.69
2019-02-19T14:30:19.876Z,56.74
2019-02-19T14:36:38.970Z,56.97
2019-02-19T14:43:01.151Z,56.92
2019-02-19T14:49:34.077Z,56.12
2019-02-19T14:55:32.724Z,54.05
2019-02-19T15:01:54.928Z,51.17
2019-02-19T15:08:05.339Z,51.81
2019-02-19T15:14:14.659Z,51.41
2019-02-19T15:20:29.884Z,52.48
2019-02-19T15:26:34.220Z,54.03
2019-02-19T15:32:49.481Z,53.50
2019-02-19T15:38:58.647Z,54.38
2019-02-19T15:45:20.886Z,55.56
2019-02-19T15:51:30.007Z,56.23
2019-02-19T15:57:45.580Z,57.69
2019-02-19T16:03:51.798Z,56.36
2019-02-19T16:09:59.717Z,57.34
2019-02-19T16:16:12.121Z,57.19
2019-02-19T16:22:33.528Z,56.57
2019-02-19T16:28:42.815Z,56.22
2019-02-19T16:34:56.576Z,56.55
2019-02-19T16:41:19.481Z,56.78
2019-02-19T16:47:26.627Z,57.51
2019-02-19T16:53:41.472Z,58.84
2019-02-19T17:00:03.538Z,59.36
2019-02-19T17:06:09.812Z,59.57
2019-02-19T17:12:20.095Z,59.86
2019-02-19T17:18:32.391Z,60.01
2019-02-19T17:24:38.683Z,60.22
2019-02-19T17:30:47.685Z,60.24
2019-02-19T17:36:53.912Z,60.29
2019-02-19T17:43:00.214Z,60.73
2019-02-19T17:49:15.246Z,60.96
2019-02-19T17:55:34.471Z,61.08
2019-02-19T18:01:56.290Z,61.57
2019-02-19T18:08:12.522Z,62.19
2019-02-19T18:14:24.220Z,62.80
2019-02-19T18:20:29.441Z,63.06
2019-02-19T18:26:34.155Z,63.99
2019-02-19T18:32:38.812Z,63.72
2019-02-19T18:38:43.704Z,63.63
2019-02-19T18:44:48.268Z,63.90
2019-02-19T18:50:58.539Z,63.89
2019-02-19T18:56:59.380Z,64.37
2019-02-19T19:03:06.645Z,64.34
2019-02-19T19:09:11.305Z,64.17
2019-02-19T19:15:15.945Z,64.26
2019-02-19T19:21:20.587Z,63.94
2019-02-19T19:27:26.157Z,63.82
2019-02-19T19:33:30.879Z,64.13
2019-02-19T19:39:35.552Z,63.82
2019-02-19T19:45:40.129Z,64.15
2019-02-19T19:51:44.774Z,64.90
2019-02-19T19:57:49.546Z,64.77
2019-02-19T20:03:54.186Z,65.55
2019-02-19T20:09:59.067Z,65.44
2019-02-19T20:16:03.921Z,65.15
2019-02-19T20:22:08.478Z,65.17
2019-02-19T20:28:13.180Z,65.27
2019-02-19T20:34:19.793Z,65.44
2019-02-19T20:40:24.452Z,65.96
2019-02-19T20:46:29.068Z,66.08
2019-02-19T20:52:34.420Z,65.46
2019-02-19T20:58:39.118Z,64.93
2019-02-19T21:04:43.656Z,63.64
2019-02-19T21:10:48.313Z,63.65
2019-02-19T21:16:53.025Z,63.73
2019-02-19T21:22:57.718Z,63.41
2019-02-19T21:29:03.113Z,63.65
2019-02-19T21:35:09.304Z,63.24
2019-02-19T21:41:14.061Z,63.17
2019-02-19T21:47:18.680Z,63.39
2019-02-19T21:53:23.377Z,63.52
2019-02-19T21:59:28.094Z,64.17
2019-02-19T22:05:33.092Z,64.27
2019-02-19T22:11:37.646Z,64.76
2019-02-19T22:17:42.383Z,65.19
2019-02-19T22:23:47.131Z,64.95
2019-02-19T22:29:51.886Z,65.56
2019-02-19T22:35:56.450Z,65.33
2019-02-19T22:42:01.242Z,65.99
2019-02-19T22:48:06.524Z,66.18
2019-02-19T22:54:22.182Z,65.67
2019-02-19T23:00:47.529Z,65.82
2019-02-19T23:06:52.155Z,66.41
2019-02-19T23:12:57.325Z,66.19
2019-02-19T23:19:02.242Z,66.57
2019-02-19T23:25:07.546Z,66.28
2019-02-19T23:31:12.255Z,66.61
2019-02-19T23:37:16.881Z,66.96
2019-02-19T23:43:21.501Z,67.52
2019-02-19T23:49:26.581Z,68.14
2019-02-19T23:55:31.955Z,68.67
